Fort Neal, West Virginia
Current Conditions -  °F | °C
As of 10:53 PM on Thursday 27 Nov 2014 (Local Time) from KPKB Reporting Station
Overcast Overcast  
Wind Chill: 22°   Ceiling: 2000
Heat Index: 31°   Visibility: 10mi
Dew Point: 24°   Wind: 12mph
Humidity: 76%   Direction: 290°WNW
Pressure: 30.33"   Gusts: 18mph
Location:  39.2652°N, 81.5633°W
Report Text: KPKB 280353Z AUTO 29010G16KT 10SM BKN020 OVC025 M01/M04 A3033 RMK AO2 SLP279 T10061044
Loading
Personal Weather Stations






























Interactive Weather Map New forecast layout! Learn more

10-Day Weather Forecast

Advertisements
Track Severe Weather on mobile